Soldotna, AK

2:19 PM AKDT on August 29, 2014 (GMT -0800)
Soldotna | Change Station
CLOSE
Current Station
Airport
Location: Soldotna,
Elevation: 112 ft
Nearby Weather Stations
Active Advisory: Special Statement Active Notice: Record Report

Elev 112 ft 60.48 °N, 151.03 °W | Updated 3 minutes ago

Clear
Clear
57 °F
Feels Like 57 °F
N
0
Wind Variable Wind from North

Today
High -- | Low -- °F
--% Chance of Precip.
Yesterday
High -- | Low -- °F
Precip. -- in
6:51 AM 9:17 PM
Waxing Crescent, 17% visible
Pressure 29.56 in
Visibility 10.0 miles
Clouds Clear
Dew Point 46 °F
Humidity 67%
Rainfall 0.19 in
Snow Depth Not available.
UV 5 out of 12
Pollen Not available.
Air Quality Not available.
Flu Activity Not available.
METAR PASX 292216Z AUTO 00000KT 10SM CLR 14/08 A2956 RMK AO1

More Conditions Fewer Conditions

Pressure 29.56 in
Visibility 10.0 miles
Clouds Clear
Dew Point 46 °F
Humidity 67%
Rainfall 0.19 in
Snow Depth Not available.
UV 5 out of 12
Pollen Not available.
Air Quality Not available.
Flu Activity Not available.
METAR PASX 292216Z AUTO 00000KT 10SM CLR 14/08 A2956 RMK AO1

More Conditions Fewer Conditions

10-Day Weather Forecast

Almanac

Astronomy

Aug. 29, 2014 Rise Set
Actual Time 6:51 AM AKDT 9:17 PM AKDT
Civil Twilight 6:04 AM AKDT 10:03 PM AKDT
Nautical Twilight 5:02 AM AKDT 11:05 PM AKDT
Astronomical Twilight 3:34 AM AKDT 12:29 AM AKDT
Moon 12:03 PM AKDT 10:03 PM AKDT
Length of Visible Light 15h 59m
Length of Day
14h 26m
Tomorrow will be 5m 28s shorter.
Waxing Crescent, 17% of the Moon is Illuminated
Today
Waxing Crescent
Sep 2
First Quarter
Sep 8
Full
Sep 15
Last Quarter
Sep 24
New

Today's Extremes

State Highs State Lows

Community

WunderPhotos

Upload Photos

1,748,356 photos uploaded!

Nearby

Snow Depth

Station Depth Elevation
Cooper Lake 7 in 1200 ft
MF Bradley River 2 in 2300 ft
Summit Creek 0 in 1400 ft
Mcneil Canyon 1 in 1320 ft
Grouse Creek Divide 0 in 700 ft

Earthquake Activity

City Distance Mag. Time & Date
No recent earthquake activity has been reported nearby.
Minimum magnitude displayed is 2.5.

Coastal Water Temperatures

Place Temperature
No Stations Reporting

Nearby Weather Stations